Time;durP1;ratioP1;P1;durP2;ratioP2;P2;SDS_P1;SDS_P2;PMS_P1;PMS_P2;Temp;Humidity;BMP_temperature;BMP_pressure;BME280_temperature;BME280_humidity;BME280_pressure;Samples;Min_cycle;Max_cycle;Signal;HPM_P1;HPM_P2
2024/04/24 00:00:45;;;;;;;14.43;11.18;;;6.30;79.70;;;;;;5475712;26;20040;-62
2024/04/24 00:03:11;;;;;;;14.00;10.25;;;6.30;78.80;;;;;;5427009;26;20021;-62
2024/04/24 00:05:36;;;;;;;14.70;10.73;;;6.30;78.80;;;;;;5481598;26;20071;-61
2024/04/24 00:08:02;;;;;;;14.27;10.73;;;6.30;78.90;;;;;;5455224;26;20477;-63
2024/04/24 00:10:28;;;;;;;13.88;10.73;;;6.30;78.80;;;;;;5474690;26;19994;-62
2024/04/24 00:12:53;;;;;;;15.10;10.95;;;6.30;78.80;;;;;;5481109;26;19994;-62
2024/04/24 00:15:19;;;;;;;14.88;11.02;;;6.30;79.00;;;;;;5470706;26;19998;-63
2024/04/24 00:17:45;;;;;;;14.00;10.52;;;6.30;79.00;;;;;;5472733;26;19999;-63
2024/04/24 00:20:10;;;;;;;15.00;10.93;;;6.30;79.00;;;;;;5467969;26;20442;-61
2024/04/24 00:22:36;;;;;;;14.65;10.88;;;6.30;79.00;;;;;;5470363;26;19999;-62
2024/04/24 00:25:01;;;;;;;14.82;10.88;;;6.30;79.10;;;;;;5475396;26;20001;-62
2024/04/24 00:27:27;;;;;;;13.35;10.98;;;6.30;79.90;;;;;;5476253;26;20006;-63
2024/04/24 00:29:53;;;;;;;15.50;11.38;;;6.30;79.10;;;;;;5471007;26;20027;-63
2024/04/24 00:32:19;;;;;;;15.50;10.85;;;6.30;79.00;;;;;;5470175;26;20007;-63
2024/04/24 00:34:44;;;;;;;14.35;10.63;;;6.30;79.00;;;;;;5468026;26;20497;-62
2024/04/24 00:37:10;;;;;;;15.48;11.20;;;6.30;79.00;;;;;;5468234;26;19990;-62
2024/04/24 00:39:36;;;;;;;13.57;10.60;;;6.30;79.10;;;;;;5473312;26;20322;-62
2024/04/24 00:42:01;;;;;;;14.23;10.98;;;6.30;79.00;;;;;;5464191;26;19994;-62
2024/04/24 00:44:27;;;;;;;14.27;10.98;;;6.30;78.90;;;;;;5475561;26;19994;-63
2024/04/24 00:46:54;;;;;;;13.95;10.63;;;6.40;78.90;;;;;;5479589;26;20466;-63
2024/04/24 00:49:20;;;;;;;15.48;11.07;;;6.30;78.90;;;;;;5461752;26;19994;-63
2024/04/24 00:51:46;;;;;;;14.77;10.30;;;6.30;78.80;;;;;;5473642;26;20024;-62
2024/04/24 00:54:12;;;;;;;17.77;10.90;;;6.40;78.90;;;;;;5475084;26;20043;-62
2024/04/24 00:56:38;;;;;;;13.63;10.43;;;6.30;78.80;;;;;;5473340;26;20398;-62
2024/04/24 00:59:04;;;;;;;15.32;10.98;;;6.30;78.80;;;;;;5462260;26;19998;-62
2024/04/24 01:01:30;;;;;;;14.48;10.65;;;6.30;78.80;;;;;;5466537;26;20059;-63
2024/04/24 01:03:55;;;;;;;13.48;9.90;;;6.30;78.80;;;;;;5477536;26;19994;-63
2024/04/24 01:06:21;;;;;;;15.35;11.27;;;6.30;78.80;;;;;;5478150;26;20572;-61
2024/04/24 01:08:46;;;;;;;14.90;11.07;;;6.30;78.90;;;;;;5468096;26;20009;-63
2024/04/24 01:11:12;;;;;;;14.73;11.07;;;6.30;78.90;;;;;;5475798;26;20410;-63
2024/04/24 01:13:38;;;;;;;13.73;10.63;;;6.30;78.90;;;;;;5467837;26;19990;-63
2024/04/24 01:16:16;;;;;;;14.38;10.52;;;6.30;78.90;;;;;;5462763;26;20015;-63
2024/04/24 01:19:01;;;;;;;14.52;10.85;;;6.30;79.10;;;;;;5474264;26;20032;-63
2024/04/24 01:21:48;;;;;;;16.27;11.05;;;6.30;79.00;;;;;;5474701;26;20415;-63
2024/04/24 01:24:22;;;;;;;14.40;10.93;;;6.30;78.90;;;;;;5448503;26;20009;-63
2024/04/24 01:26:48;;;;;;;14.95;10.63;;;6.20;78.80;;;;;;5469495;26;20010;-63
2024/04/24 01:29:15;;;;;;;14.07;11.13;;;6.20;78.70;;;;;;5476406;26;20013;-63
2024/04/24 01:31:40;;;;;;;15.88;10.75;;;6.20;78.80;;;;;;5456700;26;20379;-63
2024/04/24 01:34:06;;;;;;;14.07;10.93;;;6.20;78.90;;;;;;5468887;26;20010;-63
2024/04/24 01:36:32;;;;;;;16.63;11.43;;;6.10;78.90;;;;;;5471306;26;20050;-63
2024/04/24 01:38:57;;;;;;;16.98;11.68;;;6.10;78.90;;;;;;5473895;26;22222;-63
2024/04/24 01:41:23;;;;;;;14.55;11.38;;;6.10;79.00;;;;;;5470241;26;20006;-63
2024/04/24 01:43:49;;;;;;;15.57;11.38;;;6.10;79.00;;;;;;5466613;26;20067;-63
2024/04/24 01:46:14;;;;;;;15.02;10.93;;;6.10;79.00;;;;;;5465443;26;20039;-63
2024/04/24 01:48:41;;;;;;;14.48;10.55;;;6.10;79.00;;;;;;5478394;26;19998;-63
2024/04/24 01:51:06;;;;;;;15.13;11.00;;;6.10;79.10;;;;;;5473372;26;20013;-63
2024/04/24 01:53:32;;;;;;;14.27;11.10;;;6.10;79.10;;;;;;5469352;26;20393;-63
2024/04/24 01:55:58;;;;;;;16.25;11.13;;;6.00;79.20;;;;;;5478900;26;20010;-63
2024/04/24 01:58:23;;;;;;;15.50;11.95;;;6.10;79.20;;;;;;5470758;26;20006;-63
2024/04/24 02:00:49;;;;;;;14.25;11.00;;;6.10;79.20;;;;;;5478179;26;20358;-63
2024/04/24 02:03:14;;;;;;;15.10;11.38;;;6.00;79.20;;;;;;5476111;26;19994;-63
2024/04/24 02:05:40;;;;;;;15.38;11.82;;;6.00;79.20;;;;;;5467534;26;20041;-63
2024/04/24 02:08:06;;;;;;;17.05;11.73;;;6.00;79.20;;;;;;5476918;26;20077;-62
2024/04/24 02:10:32;;;;;;;15.50;11.50;;;6.00;79.20;;;;;;5475851;26;20468;-63
2024/04/24 02:12:57;;;;;;;15.52;11.68;;;6.00;79.20;;;;;;5470383;26;20006;-63
2024/04/24 02:15:23;;;;;;;15.52;11.20;;;6.00;79.20;;;;;;5467864;26;19998;-63
2024/04/24 02:17:49;;;;;;;17.02;11.57;;;6.00;79.20;;;;;;5467472;26;20003;-63
2024/04/24 02:20:14;;;;;;;15.57;11.52;;;6.00;79.30;;;;;;5473347;26;20497;-63
2024/04/24 02:22:40;;;;;;;15.52;11.77;;;6.00;79.30;;;;;;5470402;26;20008;-62
2024/04/24 02:27:50;;;;;;;16.98;11.60;;;5.90;79.30;;;;;;5458314;26;20362;-63
2024/04/24 02:30:15;;;;;;;16.50;11.75;;;5.90;79.40;;;;;;5470578;26;20018;-62
2024/04/24 02:32:41;;;;;;;16.42;11.98;;;5.90;79.40;;;;;;5469185;26;19995;-63
2024/04/24 02:35:07;;;;;;;16.33;11.57;;;5.90;79.30;;;;;;5476747;26;20369;-63
2024/04/24 02:37:32;;;;;;;15.60;11.82;;;5.90;80.20;;;;;;5471199;26;20088;-63
2024/04/24 02:39:58;;;;;;;16.90;12.85;;;5.90;79.40;;;;;;5470657;26;19998;-63
2024/04/24 02:42:23;;;;;;;18.17;12.07;;;5.80;79.30;;;;;;5465440;26;20517;-63
2024/04/24 02:44:49;;;;;;;15.40;12.18;;;5.80;79.40;;;;;;5470823;26;22331;-63
2024/04/24 02:47:14;;;;;;;16.88;12.13;;;5.80;79.50;;;;;;5469597;26;20317;-62
2024/04/24 02:49:40;;;;;;;15.18;12.25;;;5.80;79.60;;;;;;5445261;26;19998;-63
2024/04/24 02:52:06;;;;;;;15.15;11.98;;;5.80;79.70;;;;;;5472187;26;20364;-63
2024/04/24 02:54:31;;;;;;;17.20;11.60;;;5.80;79.70;;;;;;5463192;26;19991;-63
2024/04/24 02:56:57;;;;;;;16.67;12.20;;;5.80;79.70;;;;;;5465145;26;20014;-63
2024/04/24 02:59:22;;;;;;;18.55;12.18;;;5.80;79.70;;;;;;5470324;26;20017;-63
2024/04/24 03:01:48;;;;;;;15.50;12.18;;;5.70;79.70;;;;;;5467633;26;19999;-63
2024/04/24 03:04:13;;;;;;;18.25;13.00;;;5.80;79.80;;;;;;5473799;26;20002;-63
2024/04/24 03:06:43;;;;;;;16.73;12.65;;;5.70;80.50;;;;;;5469613;26;19998;-63
2024/04/24 03:09:09;;;;;;;17.85;12.50;;;5.70;79.90;;;;;;5482783;26;20010;-63
2024/04/24 03:11:37;;;;;;;18.20;12.80;;;5.70;79.70;;;;;;5473080;26;20058;-63
2024/04/24 03:14:02;;;;;;;18.05;12.75;;;5.70;79.80;;;;;;5475265;26;20005;-63
2024/04/24 03:16:31;;;;;;;17.05;12.45;;;5.70;79.90;;;;;;5466034;26;20002;-63
2024/04/24 03:18:57;;;;;;;17.42;13.15;;;5.70;80.00;;;;;;5475654;26;20330;-63
2024/04/24 03:21:23;;;;;;;18.83;12.30;;;5.70;80.00;;;;;;5478660;26;20047;-63
2024/04/24 03:23:49;;;;;;;17.48;12.00;;;5.70;80.00;;;;;;5474843;26;20051;-62
2024/04/24 03:26:15;;;;;;;17.63;12.73;;;5.70;80.00;;;;;;5470960;26;19999;-63
2024/04/24 03:28:40;;;;;;;18.13;12.68;;;5.60;79.90;;;;;;5474067;26;20034;-62
2024/04/24 03:31:06;;;;;;;20.15;13.30;;;5.60;79.90;;;;;;5463744;26;20410;-62
2024/04/24 03:33:32;;;;;;;16.25;12.45;;;5.60;79.90;;;;;;5468923;26;19994;-62
2024/04/24 03:35:57;;;;;;;20.48;13.32;;;5.60;79.80;;;;;;5469757;26;19998;-63
2024/04/24 03:38:23;;;;;;;16.08;12.63;;;5.60;79.90;;;;;;5468223;26;20018;-63
2024/04/24 03:40:49;;;;;;;18.15;12.95;;;5.50;79.80;;;;;;5466635;26;20387;-62
2024/04/24 03:43:14;;;;;;;17.55;12.32;;;5.50;79.80;;;;;;5466730;26;20030;-63
2024/04/24 03:45:40;;;;;;;18.23;13.02;;;5.50;79.80;;;;;;5476044;26;20010;-63
2024/04/24 03:48:06;;;;;;;17.35;12.90;;;5.40;79.70;;;;;;5474381;26;20579;-63
2024/04/24 03:50:31;;;;;;;16.35;12.48;;;5.50;79.90;;;;;;5467948;26;20818;-63
2024/04/24 03:52:57;;;;;;;18.08;13.13;;;5.40;79.80;;;;;;5470903;26;20388;-63
2024/04/24 03:55:22;;;;;;;17.75;13.10;;;5.40;79.80;;;;;;5472342;26;20008;-63
2024/04/24 03:57:48;;;;;;;16.48;11.75;;;5.30;79.70;;;;;;5467919;26;20520;-63
2024/04/24 04:00:14;;;;;;;17.42;12.45;;;5.40;80.40;;;;;;5470007;26;20043;-63
2024/04/24 04:02:39;;;;;;;17.63;12.68;;;5.30;79.70;;;;;;5464017;26;20006;-61
2024/04/24 04:05:05;;;;;;;19.92;12.30;;;5.30;79.70;;;;;;5442166;26;20022;-63
2024/04/24 04:07:31;;;;;;;20.02;12.23;;;5.30;79.70;;;;;;5466287;26;20087;-63
2024/04/24 04:09:57;;;;;;;15.85;12.35;;;5.30;79.70;;;;;;5475098;26;20074;-63
2024/04/24 04:12:22;;;;;;;17.75;12.15;;;5.30;79.70;;;;;;5467959;26;20010;-63
2024/04/24 04:14:48;;;;;;;18.95;12.23;;;5.30;79.60;;;;;;5469471;26;19998;-63
2024/04/24 04:17:13;;;;;;;20.20;12.15;;;5.30;79.60;;;;;;5469358;26;20520;-63
2024/04/24 04:19:39;;;;;;;17.48;11.68;;;5.30;79.50;;;;;;5476131;26;20081;-63
2024/04/24 04:22:04;;;;;;;17.67;12.38;;;5.20;79.50;;;;;;5476236;26;20548;-62
2024/04/24 04:24:30;;;;;;;16.08;11.43;;;5.20;79.50;;;;;;5473029;26;20063;-61
2024/04/24 04:26:55;;;;;;;17.52;11.25;;;5.20;79.60;;;;;;5465237;26;19994;-63
2024/04/24 04:29:21;;;;;;;16.45;12.25;;;5.20;80.50;;;;;;5471480;26;20037;-62
2024/04/24 04:31:46;;;;;;;21.90;14.30;;;5.20;79.80;;;;;;5475683;26;20469;-63
2024/04/24 04:34:12;;;;;;;19.17;13.68;;;5.20;79.80;;;;;;5470051;26;20013;-62
2024/04/24 04:36:38;;;;;;;18.08;12.65;;;5.20;79.70;;;;;;5479581;26;19990;-62
2024/04/24 04:39:04;;;;;;;18.60;13.10;;;5.20;79.60;;;;;;5479375;26;20009;-63
2024/04/24 04:41:29;;;;;;;19.88;12.73;;;5.20;79.60;;;;;;5478109;26;19994;-63
2024/04/24 04:43:56;;;;;;;19.85;13.25;;;5.20;79.60;;;;;;5465050;26;20026;-63
2024/04/24 04:46:22;;;;;;;20.52;13.45;;;5.20;79.70;;;;;;5478359;26;20338;-63
2024/04/24 04:48:48;;;;;;;19.83;13.88;;;5.10;79.70;;;;;;5482526;26;19994;-63
2024/04/24 04:51:13;;;;;;;19.80;13.98;;;5.10;79.80;;;;;;5476338;26;20349;-63
2024/04/24 04:53:40;;;;;;;20.10;13.88;;;5.10;79.90;;;;;;5478423;26;20478;-63
2024/04/24 04:56:06;;;;;;;17.75;12.07;;;5.00;79.90;;;;;;5478890;26;20347;-62
2024/04/24 04:58:32;;;;;;;19.27;13.75;;;5.00;80.00;;;;;;5475637;26;20010;-63
2024/04/24 05:00:57;;;;;;;21.00;12.90;;;5.00;80.20;;;;;;5476067;26;20017;-63
2024/04/24 05:03:23;;;;;;;19.95;13.23;;;5.00;80.20;;;;;;5474813;26;20333;-63
2024/04/24 05:05:48;;;;;;;19.08;12.27;;;5.00;80.40;;;;;;5478541;26;19998;-63
2024/04/24 05:08:14;;;;;;;20.58;13.40;;;5.00;80.40;;;;;;5468785;26;20014;-63
2024/04/24 05:10:40;;;;;;;18.45;13.35;;;5.00;80.50;;;;;;5472513;26;20391;-63
2024/04/24 05:13:10;;;;;;;19.65;13.20;;;5.00;80.60;;;;;;5454626;26;20002;-63
2024/04/24 05:15:35;;;;;;;21.98;13.63;;;5.10;80.80;;;;;;5474681;26;20005;-63
2024/04/24 05:18:06;;;;;;;20.60;13.52;;;5.10;80.80;;;;;;5479376;26;20017;-62
2024/04/24 05:20:32;;;;;;;20.70;13.20;;;5.00;80.90;;;;;;5479151;26;20012;-63
2024/04/24 05:23:03;;;;;;;19.25;13.45;;;5.10;81.00;;;;;;5469848;26;20006;-62
2024/04/24 05:25:32;;;;;;;18.52;13.48;;;5.10;81.10;;;;;;5474990;26;20005;-62
2024/04/24 05:30:42;;;;;;;17.90;12.73;;;5.10;81.10;;;;;;5470800;26;20017;-63
2024/04/24 05:33:08;;;;;;;19.80;13.45;;;5.20;81.20;;;;;;5477532;26;20041;-62
2024/04/24 05:35:33;;;;;;;23.17;13.05;;;5.20;81.20;;;;;;5477079;26;20349;-63
2024/04/24 05:37:59;;;;;;;21.30;13.70;;;5.20;81.30;;;;;;5479311;26;19994;-62
2024/04/24 05:40:24;;;;;;;20.35;14.02;;;5.20;81.30;;;;;;5477005;26;20049;-62
2024/04/24 05:42:50;;;;;;;20.25;13.18;;;5.20;81.30;;;;;;5479811;26;20476;-63
2024/04/24 05:45:16;;;;;;;20.58;13.13;;;5.20;81.40;;;;;;5476229;26;20530;-63
2024/04/24 05:47:41;;;;;;;18.42;12.55;;;5.30;81.40;;;;;;5479140;26;19994;-63
2024/04/24 05:50:07;;;;;;;19.27;13.18;;;5.30;81.30;;;;;;5479751;26;20468;-63
2024/04/24 05:52:32;;;;;;;16.95;12.60;;;5.40;81.20;;;;;;5464130;26;21642;-63
2024/04/24 05:54:58;;;;;;;18.42;12.55;;;5.40;81.10;;;;;;5477708;26;19999;-63
2024/04/24 05:57:23;;;;;;;17.15;12.32;;;5.40;81.10;;;;;;5475130;26;20013;-63
2024/04/24 05:59:49;;;;;;;16.65;12.15;;;5.40;80.90;;;;;;5476300;26;20373;-63
2024/04/24 06:02:15;;;;;;;18.23;12.52;;;5.50;81.80;;;;;;5473145;26;19998;-63
2024/04/24 06:04:41;;;;;;;15.65;11.85;;;5.50;80.90;;;;;;5467974;26;20021;-63
2024/04/24 06:07:07;;;;;;;16.08;11.43;;;5.60;81.00;;;;;;5476514;26;19994;-63
2024/04/24 06:09:33;;;;;;;16.30;11.55;;;5.60;80.80;;;;;;5479898;26;19994;-62
2024/04/24 06:11:59;;;;;;;19.73;11.68;;;5.60;80.60;;;;;;5475051;26;20006;-63
2024/04/24 06:14:24;;;;;;;15.93;11.82;;;5.60;80.50;;;;;;5475035;26;20334;-63
2024/04/24 06:16:50;;;;;;;15.77;11.30;;;5.70;80.40;;;;;;5475893;26;20005;-63
2024/04/24 06:19:16;;;;;;;17.13;10.75;;;5.70;80.40;;;;;;5479687;26;20449;-62
2024/04/24 06:21:41;;;;;;;16.88;11.15;;;5.80;80.30;;;;;;5477897;26;20079;-63
2024/04/24 06:24:07;;;;;;;13.70;10.00;;;5.80;81.10;;;;;;5477135;26;20063;-62
2024/04/24 06:26:32;;;;;;;15.27;10.38;;;5.90;80.20;;;;;;5472401;26;20013;-63
2024/04/24 06:28:58;;;;;;;15.50;10.50;;;5.90;80.80;;;;;;5463613;26;20469;-63
2024/04/24 06:31:24;;;;;;;15.45;10.20;;;6.00;79.90;;;;;;5478647;26;20600;-62
2024/04/24 06:33:49;;;;;;;16.60;9.88;;;6.00;79.50;;;;;;5472280;26;20008;-63
2024/04/24 06:36:15;;;;;;;13.88;10.05;;;6.10;79.20;;;;;;5473331;26;20066;-63
2024/04/24 06:38:40;;;;;;;12.23;9.27;;;6.20;79.00;;;;;;5472668;26;19994;-63
2024/04/24 06:41:06;;;;;;;12.15;9.10;;;6.20;79.50;;;;;;5476080;26;20535;-63
2024/04/24 06:43:32;;;;;;;12.25;9.27;;;6.20;78.50;;;;;;5471869;26;19998;-63
2024/04/24 06:45:57;;;;;;;13.35;9.63;;;6.30;78.30;;;;;;5481508;26;19998;-60
2024/04/24 06:48:23;;;;;;;13.80;9.43;;;6.30;78.10;;;;;;5481626;26;19990;-62
2024/04/24 06:50:49;;;;;;;14.98;9.45;;;6.30;78.00;;;;;;5482206;26;19994;-62
2024/04/24 06:53:14;;;;;;;12.27;9.07;;;6.40;77.90;;;;;;5481729;26;20002;-63
2024/04/24 06:55:44;;;;;;;12.43;9.38;;;6.40;77.80;;;;;;5480536;26;20002;-63
2024/04/24 06:58:09;;;;;;;12.07;8.90;;;6.50;77.90;;;;;;5474897;26;19999;-63
2024/04/24 07:00:35;;;;;;;13.32;8.35;;;6.60;78.00;;;;;;5479031;26;20005;-63
2024/04/24 07:03:02;;;;;;;15.55;8.40;;;6.60;77.40;;;;;;5480233;26;19995;-62
2024/04/24 07:05:28;;;;;;;13.18;7.72;;;6.70;77.30;;;;;;5479463;26;19998;-63
2024/04/24 07:07:53;;;;;;;13.80;7.47;;;6.80;77.10;;;;;;5481483;26;19998;-62
2024/04/24 07:10:19;;;;;;;11.15;8.45;;;6.80;76.80;;;;;;5480238;26;20006;-63
2024/04/24 07:12:45;;;;;;;11.23;7.72;;;6.80;76.10;;;;;;5480603;26;20013;-62
2024/04/24 07:15:10;;;;;;;10.00;7.40;;;6.90;75.90;;;;;;5481558;26;20009;-63
2024/04/24 07:17:36;;;;;;;11.57;7.68;;;6.90;75.50;;;;;;5480237;26;19990;-63
2024/04/24 07:20:01;;;;;;;13.43;8.48;;;6.90;75.20;;;;;;5478264;26;20341;-63
2024/04/24 07:22:27;;;;;;;9.95;7.75;;;7.00;75.10;;;;;;5481045;26;20066;-63
2024/04/24 07:24:52;;;;;;;13.05;7.75;;;7.00;75.10;;;;;;5479639;26;20072;-63
2024/04/24 07:27:18;;;;;;;13.85;7.57;;;7.10;75.10;;;;;;5466362;26;19995;-63
2024/04/24 07:29:44;;;;;;;8.30;6.65;;;7.10;75.10;;;;;;5478336;26;20486;-63
2024/04/24 07:32:09;;;;;;;9.63;6.93;;;7.20;74.90;;;;;;5479702;26;19994;-63
2024/04/24 07:34:35;;;;;;;10.00;7.05;;;7.30;74.20;;;;;;5480509;26;19990;-63
2024/04/24 07:37:00;;;;;;;10.38;6.82;;;7.30;74.10;;;;;;5479451;26;20402;-63
2024/04/24 07:39:26;;;;;;;9.82;6.72;;;7.40;74.10;;;;;;5437466;26;19994;-63
2024/04/24 07:41:52;;;;;;;9.07;6.65;;;7.40;73.70;;;;;;5482986;26;20574;-63
2024/04/24 07:44:17;;;;;;;8.60;6.28;;;7.50;73.80;;;;;;5475824;26;19998;-62
2024/04/24 07:46:43;;;;;;;9.50;6.70;;;7.50;73.40;;;;;;5481356;26;19998;-63
2024/04/24 07:49:08;;;;;;;8.52;6.40;;;7.60;73.10;;;;;;5480360;26;19994;-63
2024/04/24 07:51:34;;;;;;;9.27;6.93;;;7.70;73.20;;;;;;5477924;26;20002;-63
2024/04/24 07:53:59;;;;;;;9.15;6.55;;;7.70;73.00;;;;;;5479288;26;20461;-63
2024/04/24 07:56:25;;;;;;;8.75;6.55;;;7.80;73.00;;;;;;5480483;26;19994;-63
2024/04/24 07:58:51;;;;;;;8.60;6.50;;;7.80;73.00;;;;;;5481216;26;20032;-63
2024/04/24 08:01:18;;;;;;;7.75;6.53;;;7.90;72.80;;;;;;5475417;26;20002;-63
2024/04/24 08:03:44;;;;;;;8.32;6.57;;;8.00;72.50;;;;;;5464265;26;20027;-61
2024/04/24 08:06:09;;;;;;;8.07;6.88;;;8.00;72.30;;;;;;5473530;26;20478;-63
2024/04/24 08:08:38;;;;;;;7.72;6.10;;;8.10;72.10;;;;;;5478904;26;19997;-63
2024/04/24 08:11:04;;;;;;;8.65;6.25;;;8.20;71.30;;;;;;5481930;26;20029;-63
2024/04/24 08:13:30;;;;;;;8.05;5.82;;;8.20;69.50;;;;;;5480086;26;20009;-63
2024/04/24 08:15:55;;;;;;;7.00;6.10;;;8.30;66.90;;;;;;5462926;26;19999;-63
2024/04/24 08:18:21;;;;;;;7.18;5.32;;;8.40;66.80;;;;;;5473012;26;20020;-63
2024/04/24 08:20:46;;;;;;;8.85;5.50;;;8.50;67.30;;;;;;5479455;26;20067;-63
2024/04/24 08:23:12;;;;;;;8.57;6.22;;;8.50;67.60;;;;;;5481169;26;19998;-62
2024/04/24 08:25:37;;;;;;;7.95;5.93;;;8.60;67.30;;;;;;5476870;26;20409;-63
2024/04/24 08:28:03;;;;;;;7.68;6.00;;;8.60;66.20;;;;;;5467616;26;19998;-62
2024/04/24 08:30:30;;;;;;;7.38;5.65;;;8.70;66.90;;;;;;5479873;26;20363;-63
2024/04/24 08:32:55;;;;;;;6.05;5.45;;;8.80;66.70;;;;;;5480596;26;20006;-62
2024/04/24 08:35:21;;;;;;;7.07;5.70;;;8.80;65.90;;;;;;5476634;26;19990;-63
2024/04/24 08:37:47;;;;;;;6.47;5.30;;;8.80;65.50;;;;;;5479222;26;20317;-63
2024/04/24 08:40:12;;;;;;;10.30;5.85;;;8.90;65.20;;;;;;5478580;26;20002;-62
2024/04/24 08:42:38;;;;;;;7.38;5.60;;;8.90;64.60;;;;;;5473280;26;19995;-62
2024/04/24 08:45:04;;;;;;;7.95;5.90;;;9.00;64.10;;;;;;5471854;26;19998;-62
2024/04/24 08:47:31;;;;;;;7.53;5.72;;;9.00;63.50;;;;;;5479811;26;20067;-61
2024/04/24 08:49:56;;;;;;;5.68;4.72;;;9.10;63.60;;;;;;5476728;26;20006;-63
2024/04/24 08:52:25;;;;;;;7.45;5.25;;;9.20;63.80;;;;;;5475363;26;20009;-62
2024/04/24 08:54:55;;;;;;;6.22;5.10;;;9.20;63.10;;;;;;5478568;26;19999;-63
2024/04/24 08:57:23;;;;;;;7.50;4.75;;;9.30;62.60;;;;;;5480396;26;19994;-63
2024/04/24 08:59:51;;;;;;;5.63;4.80;;;9.40;63.20;;;;;;5476695;26;20043;-63
2024/04/24 09:02:19;;;;;;;6.38;5.13;;;9.50;63.10;;;;;;5478451;26;20002;-63
2024/04/24 09:04:46;;;;;;;6.05;5.30;;;9.60;62.40;;;;;;5469307;26;19994;-61
2024/04/24 09:07:14;;;;;;;7.93;5.72;;;9.60;61.90;;;;;;5478856;26;20009;-61
2024/04/24 09:09:40;;;;;;;7.53;5.97;;;9.70;60.50;;;;;;5477062;26;20010;-62
2024/04/24 09:12:07;;;;;;;7.93;5.82;;;9.70;59.90;;;;;;5475197;26;20078;-62
2024/04/24 09:14:33;;;;;;;7.95;6.75;;;9.70;59.20;;;;;;5477958;26;20026;-62
2024/04/24 09:17:02;;;;;;;6.78;5.57;;;9.60;59.50;;;;;;5479631;26;20346;-62
2024/04/24 09:19:28;;;;;;;7.28;5.70;;;9.60;60.00;;;;;;5479597;26;20444;-62
2024/04/24 09:21:54;;;;;;;6.00;5.40;;;9.50;59.60;;;;;;5476037;26;20006;-63
2024/04/24 09:24:20;;;;;;;6.97;5.75;;;9.50;59.10;;;;;;5471718;26;20005;-62
2024/04/24 09:26:47;;;;;;;6.72;5.45;;;9.40;59.30;;;;;;5480825;26;20026;-63
2024/04/24 09:29:13;;;;;;;8.07;5.32;;;9.30;59.90;;;;;;5477177;26;20009;-62
2024/04/24 09:31:40;;;;;;;6.05;4.93;;;9.30;60.10;;;;;;5468095;26;20009;-63
2024/04/24 09:34:12;;;;;;;6.95;5.25;;;9.30;59.80;;;;;;5476144;26;20009;-63
2024/04/24 09:36:40;;;;;;;7.97;5.47;;;9.30;59.80;;;;;;5473695;26;20002;-62
2024/04/24 09:39:16;;;;;;;6.53;5.47;;;9.30;61.00;;;;;;5479371;26;19998;-63
2024/04/24 09:41:43;;;;;;;6.35;4.72;;;9.30;59.70;;;;;;5479945;26;19994;-62
2024/04/24 09:44:13;;;;;;;7.22;5.35;;;9.40;60.80;;;;;;5468679;26;20476;-63
2024/04/24 09:46:51;;;;;;;6.82;5.43;;;9.40;60.50;;;;;;5477334;26;20011;-63
2024/04/24 09:49:19;;;;;;;5.75;5.07;;;9.50;60.10;;;;;;5477143;26;19991;-63
2024/04/24 09:51:45;;;;;;;6.28;4.90;;;9.50;59.50;;;;;;5463276;26;20008;-62
2024/04/24 09:54:11;;;;;;;6.72;5.35;;;9.60;59.40;;;;;;5470701;26;20058;-63
2024/04/24 09:56:41;;;;;;;7.13;5.20;;;9.70;59.50;;;;;;5478273;26;20011;-62
2024/04/24 09:59:09;;;;;;;6.55;5.53;;;9.70;59.30;;;;;;5478332;26;19994;-62
2024/04/24 10:01:37;;;;;;;6.55;5.20;;;9.80;59.30;;;;;;5477406;26;20031;-62
2024/04/24 10:04:04;;;;;;;8.50;5.45;;;9.90;59.60;;;;;;5463958;26;19991;-63
2024/04/24 10:06:34;;;;;;;7.55;5.68;;;10.00;59.40;;;;;;5479407;26;20026;-63
2024/04/24 10:09:02;;;;;;;6.90;5.43;;;10.10;58.80;;;;;;5475367;26;20030;-62
2024/04/24 10:11:33;;;;;;;8.27;5.60;;;10.10;58.30;;;;;;5464103;26;20043;-62
2024/04/24 10:13:59;;;;;;;6.40;5.28;;;10.10;58.80;;;;;;5476281;26;20000;-63
2024/04/24 10:16:26;;;;;;;6.53;5.00;;;10.20;58.80;;;;;;5477423;26;20007;-62
2024/04/24 10:18:53;;;;;;;6.10;5.50;;;10.10;59.30;;;;;;5476339;26;20014;-62
2024/04/24 10:21:19;;;;;;;6.75;5.90;;;10.20;58.60;;;;;;5479275;26;20363;-62
2024/04/24 10:23:45;;;;;;;5.82;4.90;;;10.20;58.30;;;;;;5475811;26;19995;-62
2024/04/24 10:26:12;;;;;;;5.60;5.05;;;10.20;58.90;;;;;;5476698;26;20354;-63
2024/04/24 10:28:40;;;;;;;8.10;5.45;;;10.10;58.30;;;;;;5478043;26;20006;-62
2024/04/24 10:31:07;;;;;;;5.43;4.78;;;10.00;58.60;;;;;;5475805;26;20007;-62
2024/04/24 10:33:35;;;;;;;6.10;4.93;;;10.10;59.10;;;;;;5481948;26;20008;-63
2024/04/24 10:36:01;;;;;;;6.78;4.43;;;10.00;59.60;;;;;;5474683;26;20075;-62
2024/04/24 10:38:31;;;;;;;5.43;4.78;;;10.00;58.10;;;;;;5475178;26;20076;-63
2024/04/24 10:40:57;;;;;;;5.85;4.57;;;10.10;58.10;;;;;;5481585;26;20074;-62
2024/04/24 10:43:23;;;;;;;6.55;4.43;;;10.10;58.90;;;;;;5470999;26;20457;-63
2024/04/24 10:45:53;;;;;;;5.90;4.65;;;10.10;58.70;;;;;;5482549;26;20026;-63
2024/04/24 10:48:18;;;;;;;5.28;4.78;;;10.10;58.90;;;;;;5478836;26;19995;-62
2024/04/24 10:50:46;;;;;;;6.53;4.85;;;10.10;59.30;;;;;;5469543;26;20338;-62
2024/04/24 10:53:14;;;;;;;8.40;5.28;;;10.20;59.00;;;;;;5479852;26;20031;-63
2024/04/24 10:55:58;;;;;;;5.63;4.53;;;10.20;58.10;;;;;;5480763;26;20273;-63
2024/04/24 10:58:24;;;;;;;6.88;4.93;;;10.20;58.20;;;;;;5474875;26;20005;-63
2024/04/24 11:00:49;;;;;;;6.50;4.82;;;10.20;58.60;;;;;;5478634;26;19995;-63
2024/04/24 11:03:17;;;;;;;6.13;5.00;;;10.20;58.50;;;;;;5475641;26;20081;-63
2024/04/24 11:05:42;;;;;;;5.55;4.88;;;10.20;57.60;;;;;;5478432;26;19999;-63
2024/04/24 11:08:15;;;;;;;8.48;4.65;;;10.20;57.50;;;;;;5475997;26;20434;-62
2024/04/24 11:10:49;;;;;;;6.97;4.35;;;10.10;57.20;;;;;;5437546;26;19994;-62
2024/04/24 11:13:14;;;;;;;4.13;3.42;;;10.10;57.60;;;;;;5479792;26;19998;-63
2024/04/24 11:15:40;;;;;;;4.90;3.47;;;10.10;57.10;;;;;;5478986;26;20000;-63
2024/04/24 11:18:06;;;;;;;4.72;3.50;;;10.00;57.60;;;;;;5482944;26;20015;-63
2024/04/24 11:20:36;;;;;;;3.70;3.20;;;10.00;57.70;;;;;;5478112;26;19998;-63
2024/04/24 11:23:08;;;;;;;3.90;3.42;;;10.00;57.90;;;;;;5466718;26;19994;-62
2024/04/24 11:25:34;;;;;;;8.15;3.47;;;10.00;57.70;;;;;;5469495;26;20014;-63
2024/04/24 11:27:59;;;;;;;6.90;3.58;;;10.00;57.80;;;;;;5469139;26;19999;-63
2024/04/24 11:30:25;;;;;;;4.88;3.65;;;10.00;57.90;;;;;;5472682;26;20022;-63
2024/04/24 11:32:53;;;;;;;4.28;3.70;;;10.00;57.60;;;;;;5470479;26;20125;-63
2024/04/24 11:35:21;;;;;;;3.95;3.55;;;10.00;57.00;;;;;;5473925;26;20002;-62
2024/04/24 11:37:47;;;;;;;4.90;3.88;;;10.00;57.30;;;;;;5479225;26;19998;-63
2024/04/24 11:40:15;;;;;;;5.32;3.75;;;10.00;57.50;;;;;;5475111;26;20038;-63
2024/04/24 11:42:45;;;;;;;5.40;3.72;;;10.00;57.30;;;;;;5477563;26;20009;-63
2024/04/24 11:45:11;;;;;;;5.60;4.25;;;9.90;57.70;;;;;;5477309;26;19990;-63
2024/04/24 11:47:37;;;;;;;5.78;4.65;;;9.80;58.20;;;;;;5477176;26;20014;-62
2024/04/24 11:50:03;;;;;;;6.13;4.20;;;9.80;58.90;;;;;;5480181;26;20538;-62
2024/04/24 11:52:39;;;;;;;7.22;4.72;;;9.70;59.10;;;;;;5477340;26;20346;-63
2024/04/24 11:55:06;;;;;;;5.30;4.50;;;9.60;59.40;;;;;;5478215;26;20010;-63
2024/04/24 11:57:39;;;;;;;6.78;5.20;;;9.50;60.10;;;;;;5469282;26;20039;-63
2024/04/24 12:00:06;;;;;;;8.02;5.43;;;9.40;60.80;;;;;;5479374;26;20002;-63
2024/04/24 12:02:32;;;;;;;13.85;6.85;;;9.20;61.90;;;;;;5478731;26;20002;-63
2024/04/24 12:05:02;;;;;;;8.05;5.18;;;9.10;62.80;;;;;;5478418;26;20008;-63
2024/04/24 12:07:28;;;;;;;7.03;5.85;;;9.00;63.10;;;;;;5477106;26;22421;-63
2024/04/24 12:09:55;;;;;;;6.47;5.10;;;8.90;63.40;;;;;;5478798;26;20342;-63
2024/04/24 12:12:20;;;;;;;7.40;5.00;;;8.80;63.80;;;;;;5474364;26;20013;-63
2024/04/24 12:14:50;;;;;;;5.90;4.90;;;8.80;63.80;;;;;;5477698;26;20002;-62
2024/04/24 12:17:16;;;;;;;5.97;5.35;;;8.80;64.10;;;;;;5467552;26;20600;-63
2024/04/24 12:19:41;;;;;;;7.07;4.93;;;8.80;64.00;;;;;;5470152;26;20006;-63
2024/04/24 12:22:07;;;;;;;6.97;5.38;;;8.80;63.60;;;;;;5470171;26;20354;-63
2024/04/24 12:24:33;;;;;;;6.82;5.30;;;8.70;63.40;;;;;;5479174;26;20068;-63
2024/04/24 12:27:00;;;;;;;5.80;4.47;;;8.60;63.80;;;;;;5469567;26;20010;-63
2024/04/24 12:29:25;;;;;;;5.72;4.60;;;8.70;64.30;;;;;;5473936;26;19991;-63
2024/04/24 12:31:51;;;;;;;5.30;4.32;;;8.60;63.70;;;;;;5472356;26;20010;-63
2024/04/24 12:34:19;;;;;;;5.45;4.10;;;8.60;64.10;;;;;;5451337;26;19999;-62
2024/04/24 12:36:44;;;;;;;4.85;4.30;;;8.70;64.10;;;;;;5475915;26;20002;-63
2024/04/24 12:39:10;;;;;;;4.93;4.43;;;8.80;63.30;;;;;;5478947;26;20005;-63
2024/04/24 12:41:36;;;;;;;5.13;4.18;;;8.80;63.20;;;;;;5475832;26;19995;-63
2024/04/24 12:44:05;;;;;;;4.28;3.88;;;8.80;63.20;;;;;;5475925;26;19998;-63
2024/04/24 12:46:31;;;;;;;3.60;3.25;;;8.90;62.40;;;;;;5476166;26;20070;-63